Карточка аэропорта URSS

Внимание!
Информация на этой странице в стадии наполнения.
Если вы не увидели какой-то информации, или заметили неточность - пожалуйста сообщите нам!
Спасибо!
Команда RU-STAFF
Название аэропортаСочи
Название аэропорта (англ.)Sochi
Превышение89 ft. (27.1 m.)
Координаты43°26.634', 39°56.55'
Высота перехода13000 ft
Эшелон переходаQNH>=977hPa: FL150; QNH<977hPa: FL160
Коды ответчика1060-1077
Зона ОрВДРостов-на-Дону РПИ (URRV)
Данные METARURSS 200700Z 14006MPS 9999 SCT026 OVC040CB 27/21 Q1005 R02/010070 R06/010070 NOSIG RMK R06/14006G10MPS MT OBSC QFE752
Проноз погоды (TAF)URSS 200455Z 2006/2106 16006G11MPS 9999 SCT015 SCT030CB OVC100 TEMPO 2006/2016 VRB07G14MPS 2500 -TSRA BKN007 BKN020CB OVC100 BECMG 2016/2018 05003G08MPS SCT010 BKN030CB TEMPO 2018/2106 VRB07G14MPS 2500 -TSRA BKN007 BKN020CB OVC100
NOTAMshow/hide NOTAM
AWOS   TABLE

Информация о ВПП

ВПП Длина ВПП (м.) Покрытие Курс ВПП Частота ILS
062890Цементобетон58111.1
242890Цементобетон238 
022500Цементобетон22110.5
202500Цементобетон202 

Диспетчерские позиции

Позывной Наименование органа УВД Частота
URSSFM1119.000
URSS_DELСочи-Деливери132.700
URSS_R_APPСочи-Круг119.700
URSS_APPСочи-Подход124.600
URSS_GNDСочи-Руление119.000
URSS_TWRСочи-Старт121.200



Спутниковое изображение